Aérodrome :
LOGIN :

S'inscrire | Disclaimer

   EN    FR    IT 

 










Légende :    VFR   VFR Marginal   IFR   IFR Intensif   IFR Très Intensif
Visi : 
Plafond : 
>= 8 km
>= 3000ft
5 à 8 km
1000 à 3000 ft
1500m à 5 km
500 à 1000 ft
800 à 1500m
200 à 500 ft
< 800m
< 200 ft
Symboles :   Orages  Brouillard  Fortes neiges  Fortes précipitations  Vent > 20 kt
SIGMETs :   Divers  Orages  Givrage  Turbulence  Onde Orograph.  Cendres Volcan.







- Altitude de l'aérodrome : 915 ft
- Code IATA : LUG


LSZA - Lugano

DERNIER METAR :
  • 202050Z 04007KT 020V080 9000 -RA FEW020 SCT035 BKN050 04/01 Q1007 NOSIG

METARs EXPIRÉS :
  • 202020Z 02011KT 9999 -SHRA SCT040 BKN060 OVC090 04/M00 Q1007 NOSIG
  • 201950Z 02008KT 350V050 9999 VCSH SCT050 BKN060 OVC090 05/M01 Q1008 NOSIG
  • 201920Z 01013KT 9999 -RA SCT050 BKN060 OVC090 05/M02 Q1008 NOSIG
  • 201850Z 02010KT 360V060 9999 -RA SCT050 BKN060 OVC090 06/M03 Q1008 NOSIG
  • 201820Z 02008KT 350V060 9999 VCSH SCT050 BKN060 OVC090 07/M03 Q1008 TEMPO SHRA
  • 201750Z VRB03KT 9999 BKN050 OVC070 07/M03 Q1008 TEMPO SHRA

TAF AMD TAF LSZA
Valide du 20 à 18h jusqu'au 21 à 00h UTC


201859Z 2018/2024 02010KT 9999 -RA SCT050 BKN060
PROB30
TEMPO 2020/2024 2500 -SN BKN013
ATIS : +41 22 417 40 88
Pas de NOTAMs connus pour ce terrain.



MET'MAP, la Météo Aéronautique d'un coup d'oeil ! - Copyright ORBIFLY Décembre 2007 - Disclaimer

ORBIFLY MET'MAP TEAM :

Programmation & Développement : Alexandra Zaïnal
Conception & Développement : Baudouin d'Aumeries
Co-Programmation & Développement : Marc-Olivier Méhu
Soutien technique & logistique : Manuel Goepfert

Contact : metmap@orbifly.com




SOURCES & CREDITS :

   NOAA